Terminal Aerodrome Forecast
Issued by NWS Portland, OR

Home | Current Version | Previous Version | Text Only | Print | Product List | Glossary On
Versions: 1 2 3 4 5 6 7 8 9 10 11 12 13 14 15 16 17 18 19 20 21 22 23 24 25 26 27 28 29 30 31 32 33 34 35 36
000
FTUS46 KPQR 261903 AAA
TAFTTD
TAF AMD
KTTD 261903Z 2619/2718 VRB03KT P6SM VCSH OVC015
     FM262000 24005KT P6SM SCT008 BKN015 OVC025
     FM270000 20005KT 3SM -RA BR OVC009
     FM271300 18004KT 3SM -RA BR OVC015=

USA.gov is the U.S. government's official web portal to all federal, state and local government web resources and services.